createdAt,value
2024-02-14T00:01:52.347Z,60.50
2024-02-14T00:04:20.406Z,60.70
2024-02-14T00:06:50.113Z,60.40
2024-02-14T00:09:18.220Z,60.60
2024-02-14T00:11:46.590Z,60.80
2024-02-14T00:14:14.444Z,60.70
2024-02-14T00:16:42.980Z,60.50
2024-02-14T00:19:11.076Z,60.50
2024-02-14T00:21:40.060Z,60.70
2024-02-14T00:24:09.839Z,60.50
2024-02-14T00:26:38.778Z,60.40
2024-02-14T00:29:06.976Z,60.70
2024-02-14T00:31:35.293Z,60.80
2024-02-14T00:34:03.458Z,60.80
2024-02-14T00:36:33.192Z,60.80
2024-02-14T00:39:01.420Z,60.90
2024-02-14T00:41:30.926Z,60.90
2024-02-14T00:43:59.194Z,61.10
2024-02-14T00:46:27.214Z,60.90
2024-02-14T00:48:56.159Z,61.10
2024-02-14T00:51:24.212Z,61.20
2024-02-14T00:53:51.966Z,61.20
2024-02-14T00:56:20.145Z,61.40
2024-02-14T00:58:49.199Z,61.40
2024-02-14T01:01:17.253Z,61.50
2024-02-14T01:03:45.304Z,61.50
2024-02-14T01:06:13.093Z,61.60
2024-02-14T01:08:40.897Z,61.60
2024-02-14T01:11:09.103Z,61.60
2024-02-14T01:13:36.820Z,61.70
2024-02-14T01:16:07.159Z,61.60
2024-02-14T01:18:35.476Z,61.70
2024-02-14T01:21:03.493Z,61.80
2024-02-14T01:23:31.788Z,61.70
2024-02-14T01:25:59.779Z,61.90
2024-02-14T01:28:27.765Z,61.90
2024-02-14T01:30:57.529Z,61.80
2024-02-14T01:33:26.770Z,62.00
2024-02-14T01:35:54.616Z,62.00
2024-02-14T01:38:22.949Z,62.00
2024-02-14T01:40:51.223Z,62.00
2024-02-14T01:43:19.230Z,62.10
2024-02-14T01:45:47.146Z,62.10
2024-02-14T01:48:19.884Z,62.70
2024-02-14T01:50:49.320Z,61.90
2024-02-14T01:53:17.440Z,62.00
2024-02-14T01:55:46.280Z,62.10
2024-02-14T01:58:14.266Z,62.00
2024-02-14T02:00:42.720Z,62.10
2024-02-14T02:03:11.872Z,62.00
2024-02-14T02:05:40.141Z,62.00
2024-02-14T02:08:11.299Z,62.10
2024-02-14T02:10:39.647Z,62.30
2024-02-14T02:13:07.400Z,61.90
2024-02-14T02:15:35.159Z,62.10
2024-02-14T02:18:03.088Z,62.00
2024-02-14T02:20:31.055Z,62.00
2024-02-14T02:23:00.864Z,62.00
2024-02-14T02:25:29.215Z,62.10
2024-02-14T02:27:57.789Z,62.10
2024-02-14T02:30:26.721Z,62.10
2024-02-14T02:32:54.901Z,62.10
2024-02-14T02:35:23.245Z,62.10
2024-02-14T02:37:51.910Z,62.10
2024-02-14T02:40:22.592Z,62.10
2024-02-14T02:42:51.646Z,62.20
2024-02-14T02:45:19.726Z,61.90
2024-02-14T02:47:47.909Z,62.30
2024-02-14T02:50:15.842Z,62.20
2024-02-14T02:52:43.560Z,62.10
2024-02-14T02:55:11.823Z,62.40
2024-02-14T02:57:43.186Z,62.30
2024-02-14T03:00:12.968Z,62.40
2024-02-14T03:02:43.147Z,62.30
2024-02-14T03:05:11.869Z,62.10
2024-02-14T03:07:40.474Z,62.30
2024-02-14T03:10:09.403Z,62.30
2024-02-14T03:12:37.433Z,62.20
2024-02-14T03:15:11.785Z,62.20
2024-02-14T03:17:39.667Z,62.00
2024-02-14T03:20:16.638Z,62.30
2024-02-14T03:22:46.885Z,62.10
2024-02-14T03:25:14.900Z,62.30
2024-02-14T03:27:42.935Z,62.20
2024-02-14T03:30:14.331Z,62.30
2024-02-14T03:32:42.161Z,62.40
2024-02-14T03:35:11.238Z,62.30
2024-02-14T03:37:40.546Z,62.40
2024-02-14T03:40:09.960Z,62.30
2024-02-14T03:42:39.941Z,62.40
2024-02-14T03:45:09.205Z,62.30
2024-02-14T03:47:40.677Z,62.40
2024-02-14T03:50:10.195Z,62.20
2024-02-14T03:52:37.970Z,62.40
2024-02-14T03:55:07.239Z,62.40
2024-02-14T03:57:36.714Z,62.40
2024-02-14T04:00:08.865Z,62.20
2024-02-14T04:02:40.012Z,62.50
2024-02-14T04:05:09.741Z,62.50
2024-02-14T04:07:39.103Z,62.60
2024-02-14T04:10:08.048Z,62.50
2024-02-14T04:12:36.281Z,62.20
2024-02-14T04:15:04.705Z,62.00
2024-02-14T04:17:33.181Z,62.40
2024-02-14T04:20:02.623Z,62.50
2024-02-14T04:22:30.770Z,62.60
2024-02-14T04:24:59.102Z,62.60
2024-02-14T04:27:26.991Z,62.50
2024-02-14T04:29:55.230Z,62.30
2024-02-14T04:32:25.819Z,62.50
2024-02-14T04:34:54.639Z,62.70
2024-02-14T04:37:23.986Z,62.50
2024-02-14T04:39:52.379Z,62.60
2024-02-14T04:42:20.449Z,62.60
2024-02-14T04:44:48.612Z,62.70
2024-02-14T04:47:16.879Z,62.80
2024-02-14T04:49:44.867Z,62.80
2024-02-14T04:52:13.131Z,62.90
2024-02-14T04:54:43.070Z,62.80
2024-02-14T04:57:11.121Z,62.90
2024-02-14T04:59:39.462Z,62.90
2024-02-14T05:02:08.408Z,62.80
2024-02-14T05:04:39.117Z,62.80
2024-02-14T05:07:07.705Z,62.90
2024-02-14T05:09:35.685Z,63.00
2024-02-14T05:12:05.609Z,63.00
2024-02-14T05:14:33.630Z,63.00
2024-02-14T05:17:02.454Z,62.90
2024-02-14T05:19:31.438Z,62.90
2024-02-14T05:21:59.559Z,63.00
2024-02-14T05:24:28.440Z,63.00
2024-02-14T05:26:56.452Z,63.00
2024-02-14T05:29:25.579Z,63.00
2024-02-14T05:31:56.412Z,63.10
2024-02-14T05:34:24.443Z,63.30
2024-02-14T05:36:52.820Z,63.40
2024-02-14T05:39:20.882Z,63.10
2024-02-14T05:41:49.718Z,63.20
2024-02-14T05:44:17.448Z,63.20
2024-02-14T05:46:47.629Z,63.20
2024-02-14T05:49:15.788Z,63.20
2024-02-14T05:51:43.957Z,63.50
2024-02-14T05:54:12.060Z,63.30
2024-02-14T05:56:40.301Z,63.30
2024-02-14T05:59:09.084Z,63.40
2024-02-14T06:01:37.083Z,63.50
2024-02-14T06:04:06.720Z,63.50
2024-02-14T06:06:34.788Z,63.30
2024-02-14T06:09:04.188Z,63.50
2024-02-14T06:11:31.951Z,63.40
2024-02-14T06:13:59.959Z,63.40
2024-02-14T06:16:27.682Z,63.40
2024-02-14T06:18:55.781Z,63.50
2024-02-14T06:21:25.215Z,63.40
2024-02-14T06:23:53.166Z,63.30
2024-02-14T06:26:21.472Z,63.60
2024-02-14T06:28:53.203Z,63.50
2024-02-14T06:31:21.213Z,63.40
2024-02-14T06:33:49.441Z,63.60
2024-02-14T06:36:17.540Z,63.60
2024-02-14T06:38:47.434Z,63.70
2024-02-14T06:41:15.661Z,63.80
2024-02-14T06:43:43.574Z,63.50
2024-02-14T06:46:12.145Z,63.80
2024-02-14T06:48:40.133Z,63.70
2024-02-14T06:51:09.136Z,63.60
2024-02-14T06:53:37.881Z,63.70
2024-02-14T06:56:08.369Z,63.60
2024-02-14T06:58:36.077Z,63.80
2024-02-14T07:01:04.913Z,63.80
2024-02-14T07:03:34.183Z,63.70
2024-02-14T07:06:03.842Z,63.70
2024-02-14T07:08:32.016Z,63.70
2024-02-14T07:10:59.760Z,63.70
2024-02-14T07:13:29.123Z,63.80
2024-02-14T07:15:56.856Z,63.70
2024-02-14T07:18:24.805Z,63.70
2024-02-14T07:20:52.829Z,63.80
2024-02-14T07:23:21.216Z,63.80
2024-02-14T07:25:48.953Z,63.60
2024-02-14T07:28:16.797Z,63.70
2024-02-14T07:30:46.354Z,63.60
2024-02-14T07:33:14.220Z,63.90
2024-02-14T07:35:42.459Z,64.00
2024-02-14T07:38:10.282Z,64.00
2024-02-14T07:40:38.453Z,63.90
2024-02-14T07:43:07.453Z,63.80
2024-02-14T07:45:35.207Z,63.80
2024-02-14T07:48:04.713Z,63.80
2024-02-14T07:50:32.973Z,63.80
2024-02-14T07:53:01.162Z,63.90
2024-02-14T07:55:29.021Z,63.80
2024-02-14T07:57:57.346Z,63.90
2024-02-14T08:00:25.495Z,63.70
2024-02-14T08:02:53.364Z,63.70
2024-02-14T08:05:22.476Z,63.90
2024-02-14T08:07:50.469Z,63.70
2024-02-14T08:10:18.239Z,63.90
2024-02-14T08:12:46.207Z,63.70
2024-02-14T08:15:14.449Z,63.90
2024-02-14T08:17:46.542Z,63.80
2024-02-14T08:20:15.315Z,63.90
2024-02-14T08:22:45.182Z,63.80
2024-02-14T08:25:13.572Z,63.80
2024-02-14T08:27:41.811Z,63.70
2024-02-14T08:30:10.752Z,63.70
2024-02-14T08:32:39.067Z,63.90
2024-02-14T08:35:08.604Z,63.80
2024-02-14T08:37:37.952Z,64.50
2024-02-14T08:40:08.467Z,63.70
2024-02-14T08:42:36.625Z,63.70
2024-02-14T08:45:04.900Z,63.80
2024-02-14T08:47:32.999Z,63.80
2024-02-14T08:50:01.691Z,63.70
2024-02-14T08:52:29.781Z,63.80
2024-02-14T08:54:57.783Z,63.60
2024-02-14T08:57:27.364Z,63.60
2024-02-14T08:59:55.472Z,63.70
2024-02-14T09:02:24.059Z,63.60
2024-02-14T09:04:52.294Z,63.50
2024-02-14T09:07:20.688Z,63.50
2024-02-14T09:09:49.023Z,63.50
2024-02-14T09:12:17.126Z,63.50
2024-02-14T09:14:46.603Z,63.50
2024-02-14T09:17:14.830Z,63.50
2024-02-14T09:19:46.673Z,63.60
2024-02-14T09:22:19.531Z,63.50
2024-02-14T09:24:47.479Z,63.40
2024-02-14T09:27:16.046Z,63.40
2024-02-14T09:29:46.971Z,63.80
2024-02-14T09:32:17.051Z,63.70
2024-02-14T09:34:47.131Z,63.70
2024-02-14T09:37:15.676Z,63.70
2024-02-14T09:39:45.079Z,63.80
2024-02-14T09:42:15.490Z,63.70
2024-02-14T09:44:43.949Z,63.70
2024-02-14T09:47:12.199Z,63.80
2024-02-14T09:49:41.553Z,63.70
2024-02-14T09:52:10.717Z,63.70
2024-02-14T09:54:40.207Z,63.70
2024-02-14T09:57:08.164Z,63.70
2024-02-14T09:59:36.573Z,63.70
2024-02-14T10:02:04.727Z,63.60
2024-02-14T10:04:32.850Z,63.80
2024-02-14T10:07:02.791Z,63.60
2024-02-14T10:09:31.351Z,63.60
2024-02-14T10:12:00.800Z,63.80
2024-02-14T10:14:28.753Z,63.90
2024-02-14T10:16:56.601Z,63.70
2024-02-14T10:19:25.134Z,63.60
2024-02-14T10:21:59.885Z,63.60
2024-02-14T10:24:29.491Z,63.50
2024-02-14T10:26:58.735Z,63.60
2024-02-14T10:29:26.667Z,63.60
2024-02-14T10:31:54.727Z,63.80
2024-02-14T10:34:28.625Z,63.70
2024-02-14T10:36:58.311Z,63.70
2024-02-14T10:39:26.818Z,63.80
2024-02-14T10:41:56.015Z,63.80
2024-02-14T10:44:23.820Z,63.90
2024-02-14T10:46:51.957Z,63.80
2024-02-14T10:49:20.975Z,63.90
2024-02-14T10:51:50.244Z,64.00
2024-02-14T10:54:19.090Z,64.00
2024-02-14T10:56:50.886Z,64.00
2024-02-14T10:59:22.392Z,64.10
2024-02-14T11:01:50.509Z,64.10
2024-02-14T11:04:19.565Z,64.10
2024-02-14T11:06:48.845Z,64.10
2024-02-14T11:09:17.529Z,64.10
2024-02-14T11:11:46.009Z,64.20
2024-02-14T11:14:17.946Z,64.10
2024-02-14T11:16:49.215Z,64.30
2024-02-14T11:19:18.524Z,64.20
2024-02-14T11:21:48.413Z,64.40
2024-02-14T11:24:17.777Z,64.30
2024-02-14T11:26:50.052Z,64.20
2024-02-14T11:29:20.505Z,64.30
2024-02-14T11:31:51.449Z,64.40
2024-02-14T11:34:19.421Z,64.50
2024-02-14T11:36:47.589Z,64.50
2024-02-14T11:39:17.044Z,64.40
2024-02-14T11:41:45.443Z,64.60
2024-02-14T11:44:14.135Z,64.80
2024-02-14T11:46:43.087Z,64.70
2024-02-14T11:49:12.585Z,64.70
2024-02-14T11:51:42.574Z,64.90
2024-02-14T11:54:10.563Z,64.80
2024-02-14T11:56:39.196Z,65.00
2024-02-14T11:59:07.580Z,65.30
2024-02-14T12:01:35.843Z,65.30
2024-02-14T12:04:04.687Z,65.40
2024-02-14T12:06:36.204Z,65.40
2024-02-14T12:09:06.659Z,65.40
2024-02-14T12:11:35.555Z,65.50
2024-02-14T12:14:04.903Z,65.40
2024-02-14T12:16:36.919Z,65.40
2024-02-14T12:19:11.874Z,65.60
2024-02-14T12:21:41.948Z,65.40
2024-02-14T12:24:10.063Z,65.40
2024-02-14T12:26:38.201Z,65.70
2024-02-14T12:29:07.554Z,65.60
2024-02-14T12:31:35.566Z,65.50
2024-02-14T12:34:06.750Z,65.60
2024-02-14T12:36:41.920Z,65.60
2024-02-14T12:39:14.239Z,65.80
2024-02-14T12:41:42.356Z,65.50
2024-02-14T12:44:10.314Z,65.60
2024-02-14T12:46:39.853Z,65.60
2024-02-14T12:49:09.213Z,65.60
2024-02-14T12:51:39.330Z,65.70
2024-02-14T12:54:08.618Z,65.80
2024-02-14T12:56:37.976Z,65.70
2024-02-14T12:59:05.868Z,65.60
2024-02-14T13:01:33.776Z,65.60
2024-02-14T13:04:03.568Z,65.80
2024-02-14T13:06:32.471Z,65.90
2024-02-14T13:09:01.376Z,66.00
2024-02-14T13:11:29.528Z,66.00
2024-02-14T13:13:59.549Z,66.00
2024-02-14T13:16:27.962Z,66.00
2024-02-14T13:18:56.159Z,65.90
2024-02-14T13:21:24.443Z,65.90
2024-02-14T13:23:54.028Z,65.90
2024-02-14T13:26:22.395Z,65.80
2024-02-14T13:28:51.506Z,65.90
2024-02-14T13:31:20.849Z,65.90
2024-02-14T13:33:48.966Z,65.80
2024-02-14T13:36:18.436Z,65.80
2024-02-14T13:38:47.251Z,65.80
2024-02-14T13:41:16.752Z,66.00
2024-02-14T13:43:45.593Z,66.00
2024-02-14T13:46:13.548Z,66.10
2024-02-14T13:48:43.123Z,66.00
2024-02-14T13:51:11.379Z,66.00
2024-02-14T13:53:40.415Z,66.00
2024-02-14T13:56:10.381Z,66.00
2024-02-14T13:58:39.501Z,66.00
2024-02-14T14:01:08.434Z,66.20
2024-02-14T14:03:37.771Z,66.20
2024-02-14T14:06:09.117Z,74.20
2024-02-14T14:08:38.024Z,81.90
2024-02-14T14:11:06.387Z,89.10
2024-02-14T14:13:34.998Z,92.80
2024-02-14T14:16:03.061Z,95.00
2024-02-14T14:18:31.113Z,96.50
2024-02-14T14:20:59.386Z,99.90
2024-02-14T14:23:28.812Z,99.10
2024-02-14T14:25:56.899Z,96.80
2024-02-14T14:28:26.060Z,94.90
2024-02-14T14:30:56.618Z,93.40
2024-02-14T14:33:27.026Z,91.90
2024-02-14T14:35:57.041Z,90.80
2024-02-14T14:38:28.473Z,90.00
2024-02-14T14:41:00.883Z,88.30
2024-02-14T14:43:29.221Z,86.90
2024-02-14T14:45:58.464Z,85.80
2024-02-14T14:48:28.550Z,84.80
2024-02-14T14:50:58.314Z,84.10
2024-02-14T14:53:31.845Z,83.20
2024-02-14T14:56:07.799Z,82.50
2024-02-14T14:58:43.931Z,82.00
2024-02-14T15:01:23.169Z,81.30
2024-02-14T15:03:59.590Z,80.80
2024-02-14T15:06:36.429Z,80.50
2024-02-14T15:09:05.128Z,80.00
2024-02-14T15:11:40.367Z,79.60
2024-02-14T15:14:10.401Z,79.20
2024-02-14T15:16:40.081Z,79.20
2024-02-14T15:20:29.531Z,79.00
2024-02-14T15:23:02.007Z,78.80
2024-02-14T15:25:31.971Z,78.50
2024-02-14T15:28:11.790Z,78.10
2024-02-14T15:31:19.910Z,78.00
2024-02-14T15:34:19.282Z,77.70
2024-02-14T15:36:54.576Z,77.80
2024-02-14T15:39:27.611Z,77.70
2024-02-14T15:42:05.439Z,77.70
2024-02-14T15:44:35.039Z,77.50
2024-02-14T15:47:03.317Z,77.40
2024-02-14T15:49:31.526Z,77.30
2024-02-14T15:51:59.843Z,77.20
2024-02-14T15:54:27.746Z,77.10
2024-02-14T15:56:55.854Z,77.00
2024-02-14T15:59:23.942Z,77.00
2024-02-14T16:01:53.529Z,76.90
2024-02-14T16:04:21.616Z,76.80
2024-02-14T16:06:50.011Z,76.80
2024-02-14T16:09:18.116Z,76.70
2024-02-14T16:11:47.366Z,76.80
2024-02-14T16:14:17.954Z,76.80
2024-02-14T16:16:46.167Z,76.80
2024-02-14T16:19:15.922Z,76.70
2024-02-14T16:21:44.076Z,76.60
2024-02-14T16:24:14.425Z,76.70
2024-02-14T16:26:45.660Z,76.50
2024-02-14T16:29:13.854Z,76.50
2024-02-14T16:31:48.677Z,76.30
2024-02-14T16:34:18.847Z,76.40
2024-02-14T16:36:47.437Z,76.40
2024-02-14T16:39:25.977Z,76.30
2024-02-14T16:42:03.948Z,76.40
2024-02-14T16:44:34.372Z,76.50
2024-02-14T16:47:02.822Z,76.50
2024-02-14T16:49:31.979Z,76.40
2024-02-14T16:51:59.848Z,76.50
2024-02-14T16:54:29.447Z,76.40
2024-02-14T16:57:06.308Z,76.40
2024-02-14T16:59:34.792Z,76.50
2024-02-14T17:02:03.141Z,76.50
2024-02-14T17:04:32.647Z,76.30
2024-02-14T17:07:00.976Z,76.30
2024-02-14T17:09:29.012Z,76.40
2024-02-14T17:11:57.657Z,76.40
2024-02-14T17:14:26.157Z,76.30
2024-02-14T17:16:58.118Z,76.40
2024-02-14T17:19:26.465Z,76.50
2024-02-14T17:21:55.598Z,76.40
2024-02-14T17:24:24.389Z,76.40
2024-02-14T17:26:52.296Z,76.40
2024-02-14T17:29:20.156Z,76.40
2024-02-14T17:31:49.380Z,76.20
2024-02-14T17:34:17.525Z,76.40
2024-02-14T17:36:45.800Z,76.20
2024-02-14T17:39:15.687Z,76.20
2024-02-14T17:41:44.173Z,76.10
2024-02-14T17:44:12.157Z,76.20
2024-02-14T17:46:40.209Z,76.10
2024-02-14T17:49:10.838Z,76.10
2024-02-14T17:51:38.871Z,76.20
2024-02-14T17:54:07.735Z,76.20
2024-02-14T17:56:37.222Z,76.10
2024-02-14T17:59:05.056Z,76.30
2024-02-14T18:01:34.313Z,76.00
2024-02-14T18:04:05.462Z,76.10
2024-02-14T18:06:33.561Z,76.10
2024-02-14T18:09:01.455Z,75.90
2024-02-14T18:11:29.572Z,76.10
2024-02-14T18:13:58.745Z,76.00
2024-02-14T18:16:26.531Z,76.00
2024-02-14T18:18:54.473Z,76.10
2024-02-14T18:21:22.665Z,76.00
2024-02-14T18:23:51.413Z,75.90
2024-02-14T18:26:20.166Z,76.10
2024-02-14T18:28:48.410Z,76.00
2024-02-14T18:31:23.896Z,76.00
2024-02-14T18:33:52.233Z,76.10
2024-02-14T18:36:20.430Z,76.10
2024-02-14T18:38:48.317Z,75.90
2024-02-14T18:41:19.484Z,76.10
2024-02-14T18:43:47.288Z,75.90
2024-02-14T18:46:20.137Z,76.10
2024-02-14T18:48:48.261Z,75.90
2024-02-14T18:51:17.449Z,76.00
2024-02-14T18:53:47.956Z,76.00
2024-02-14T18:56:16.037Z,76.00
2024-02-14T18:58:44.130Z,76.00
2024-02-14T19:01:12.123Z,75.60
2024-02-14T19:03:41.654Z,75.90
2024-02-14T19:06:09.881Z,75.80
2024-02-14T19:08:37.842Z,76.00
2024-02-14T19:11:06.053Z,75.90
2024-02-14T19:13:33.989Z,75.70
2024-02-14T19:16:08.709Z,75.90
2024-02-14T19:18:41.881Z,75.80
2024-02-14T19:21:10.000Z,75.90
2024-02-14T19:23:39.989Z,76.00
2024-02-14T19:26:07.905Z,75.90
2024-02-14T19:28:35.861Z,75.90
2024-02-14T19:31:03.609Z,75.90
2024-02-14T19:33:32.633Z,75.90
2024-02-14T19:36:24.869Z,76.40
2024-02-14T19:39:07.312Z,75.90
2024-02-14T19:41:46.168Z,75.80
2024-02-14T19:44:14.988Z,75.80
2024-02-14T19:46:43.099Z,75.70
2024-02-14T19:49:15.023Z,75.70
2024-02-14T19:51:45.030Z,75.80
2024-02-14T19:54:17.276Z,75.70
2024-02-14T19:56:49.333Z,75.70
2024-02-14T19:59:17.696Z,75.70
2024-02-14T20:01:50.354Z,75.70
2024-02-14T20:04:19.483Z,75.80
2024-02-14T20:06:49.369Z,75.50
2024-02-14T20:09:17.546Z,75.60
2024-02-14T20:11:46.184Z,75.70
2024-02-14T20:14:14.156Z,75.60
2024-02-14T20:16:42.818Z,75.70
2024-02-14T20:19:11.305Z,75.50
2024-02-14T20:21:39.931Z,75.70
2024-02-14T20:24:11.001Z,75.40
2024-02-14T20:26:39.922Z,75.40
2024-02-14T20:29:13.147Z,75.50
2024-02-14T20:32:21.813Z,75.40
2024-02-14T20:34:50.209Z,75.50
2024-02-14T20:37:20.934Z,75.60
2024-02-14T20:40:21.322Z,75.50
2024-02-14T20:45:49.953Z,75.60
2024-02-14T21:00:30.263Z,75.50
2024-02-14T21:08:43.598Z,75.90
2024-02-14T21:11:13.539Z,76.50
2024-02-14T21:13:43.326Z,76.00
2024-02-14T21:16:23.616Z,75.90
2024-02-14T21:18:55.339Z,75.70
2024-02-14T21:21:37.307Z,75.60
2024-02-14T21:24:21.003Z,75.50
2024-02-14T21:27:28.687Z,75.60
2024-02-14T21:31:11.285Z,75.60
2024-02-14T21:33:45.276Z,75.50
2024-02-14T21:36:13.619Z,75.80
2024-02-14T21:38:41.831Z,75.60
2024-02-14T21:41:11.677Z,75.50
2024-02-14T21:43:39.887Z,75.40
2024-02-14T21:46:09.968Z,75.50
2024-02-14T21:48:38.294Z,75.30
2024-02-14T21:51:10.564Z,75.50
2024-02-14T21:53:41.333Z,75.40
2024-02-14T21:56:18.024Z,75.60
2024-02-14T21:58:47.456Z,75.60
2024-02-14T22:01:21.743Z,75.60
2024-02-14T22:03:50.240Z,75.30
2024-02-14T22:06:18.512Z,75.30
2024-02-14T22:08:46.474Z,75.30
2024-02-14T22:11:15.725Z,75.30
2024-02-14T22:13:43.615Z,75.30
2024-02-14T22:16:12.018Z,75.10
2024-02-14T22:19:02.342Z,75.40
2024-02-14T22:21:30.329Z,75.30
2024-02-14T22:23:58.145Z,75.20
2024-02-14T22:26:28.251Z,75.10
2024-02-14T22:28:56.188Z,75.10
2024-02-14T22:31:24.144Z,75.30
2024-02-14T22:33:53.187Z,75.20
2024-02-14T22:36:22.558Z,75.10
2024-02-14T22:38:50.705Z,75.30
2024-02-14T22:41:19.444Z,75.30
2024-02-14T22:43:49.422Z,75.30
2024-02-14T22:46:17.439Z,75.30
2024-02-14T22:48:45.310Z,75.00
2024-02-14T22:51:13.164Z,75.10
2024-02-14T22:53:40.965Z,75.20
2024-02-14T22:56:11.145Z,75.10
2024-02-14T22:58:39.633Z,75.10
2024-02-14T23:01:09.104Z,75.10
2024-02-14T23:03:37.465Z,75.20
2024-02-14T23:06:05.610Z,75.10
2024-02-14T23:08:33.539Z,75.10
2024-02-14T23:11:01.433Z,74.00
2024-02-14T23:13:29.215Z,75.00
2024-02-14T23:15:59.627Z,75.20
2024-02-14T23:18:29.926Z,75.40
2024-02-14T23:20:58.224Z,75.10
2024-02-14T23:23:27.184Z,75.30
2024-02-14T23:25:55.160Z,75.10
2024-02-14T23:28:23.568Z,75.20
2024-02-14T23:30:52.046Z,74.90
2024-02-14T23:33:20.600Z,75.10
2024-02-14T23:35:53.423Z,75.00
2024-02-14T23:38:26.157Z,75.00
2024-02-14T23:40:56.268Z,75.10
2024-02-14T23:43:24.837Z,75.10
2024-02-14T23:45:52.806Z,75.80
2024-02-14T23:48:24.295Z,74.90
2024-02-14T23:50:54.159Z,75.00
2024-02-14T23:53:23.995Z,75.00
2024-02-14T23:55:54.946Z,75.00
2024-02-14T23:58:23.517Z,75.00
